createdAt,value
2023-12-18T00:30:01.678Z,6.30
2023-12-18T00:32:32.448Z,6.20
2023-12-18T00:35:06.920Z,6.20
2023-12-18T00:37:40.927Z,6.10
2023-12-18T00:40:12.773Z,6.10
2023-12-18T00:42:44.416Z,6.00
2023-12-18T00:45:20.779Z,5.90
2023-12-18T00:47:52.893Z,5.90
2023-12-18T00:50:24.106Z,5.90
2023-12-18T00:52:55.790Z,6.00
2023-12-18T00:55:26.827Z,5.80
2023-12-18T00:57:59.710Z,6.10
2023-12-18T01:00:33.744Z,5.80
2023-12-18T01:03:05.138Z,5.80
2023-12-18T01:05:35.863Z,6.00
2023-12-18T01:08:04.142Z,5.70
2023-12-18T01:10:32.298Z,5.70
2023-12-18T01:13:03.303Z,5.70
2023-12-18T01:15:41.581Z,5.70
2023-12-18T01:18:12.326Z,5.70
2023-12-18T01:20:49.924Z,5.90
2023-12-18T01:23:18.366Z,5.80
2023-12-18T01:25:49.407Z,5.60
2023-12-18T01:28:19.994Z,5.70
2023-12-18T01:30:56.313Z,5.70
2023-12-18T01:33:27.323Z,5.50
2023-12-18T01:35:55.806Z,5.70
2023-12-18T01:38:27.159Z,5.50
2023-12-18T01:40:58.908Z,5.40
2023-12-18T01:43:28.628Z,5.40
2023-12-18T01:46:01.360Z,5.40
2023-12-18T01:48:31.195Z,5.40
2023-12-18T01:51:03.350Z,5.40
2023-12-18T01:53:41.154Z,5.30
2023-12-18T01:56:16.457Z,5.40
2023-12-18T01:58:51.390Z,5.30
2023-12-18T02:01:26.059Z,5.30
2023-12-18T02:03:58.266Z,5.30
2023-12-18T02:06:30.699Z,5.50
2023-12-18T02:09:03.201Z,5.30
2023-12-18T02:11:37.469Z,5.40
2023-12-18T02:14:09.694Z,5.40
2023-12-18T02:16:49.179Z,5.50
2023-12-18T02:19:29.629Z,5.50
2023-12-18T02:21:59.378Z,5.40
2023-12-18T02:24:32.974Z,5.60
2023-12-18T02:27:02.027Z,5.30
2023-12-18T02:29:33.151Z,5.30
2023-12-18T02:32:02.422Z,5.60
2023-12-18T02:34:34.997Z,5.60
2023-12-18T02:37:03.835Z,5.60
2023-12-18T02:39:33.682Z,5.40
2023-12-18T02:42:02.086Z,5.60
2023-12-18T02:44:32.796Z,5.60
2023-12-18T02:47:03.965Z,5.50
2023-12-18T02:49:35.479Z,5.70
2023-12-18T02:52:07.201Z,5.70
2023-12-18T02:54:39.348Z,5.50
2023-12-18T02:57:07.854Z,5.40
2023-12-18T02:59:36.303Z,5.50
2023-12-18T03:02:04.998Z,5.40
2023-12-18T03:04:33.383Z,5.30
2023-12-18T03:07:01.878Z,5.40
2023-12-18T03:09:33.349Z,5.40
2023-12-18T03:12:07.722Z,5.30
2023-12-18T03:14:46.446Z,5.20
2023-12-18T03:17:14.705Z,5.30
2023-12-18T03:19:47.393Z,5.20
2023-12-18T03:22:15.962Z,5.20
2023-12-18T03:24:44.804Z,5.10
2023-12-18T03:27:21.368Z,5.10
2023-12-18T03:29:49.895Z,5.10
2023-12-18T03:32:22.477Z,5.20
2023-12-18T03:34:50.775Z,5.30
2023-12-18T03:37:19.759Z,5.30
2023-12-18T03:39:48.034Z,5.10
2023-12-18T03:42:17.890Z,5.30
2023-12-18T03:44:49.309Z,5.10
2023-12-18T03:47:19.849Z,5.10
2023-12-18T03:49:48.076Z,5.10
2023-12-18T03:52:16.447Z,5.10
2023-12-18T03:54:44.921Z,5.10
2023-12-18T03:57:13.607Z,5.10
2023-12-18T03:59:46.422Z,5.10
2023-12-18T04:02:14.999Z,5.10
2023-12-18T04:04:43.592Z,5.00
2023-12-18T04:07:14.821Z,5.30
2023-12-18T04:09:45.885Z,5.20
2023-12-18T04:12:14.193Z,5.20
2023-12-18T04:14:44.108Z,5.10
2023-12-18T04:17:14.335Z,5.00
2023-12-18T04:19:42.904Z,5.00
2023-12-18T04:22:18.305Z,5.00
2023-12-18T04:24:49.642Z,5.30
2023-12-18T04:27:19.950Z,5.00
2023-12-18T04:29:55.655Z,5.00
2023-12-18T04:32:28.143Z,5.10
2023-12-18T04:34:58.590Z,4.90
2023-12-18T04:37:32.050Z,4.90
2023-12-18T04:40:02.619Z,4.90
2023-12-18T04:42:31.237Z,4.90
2023-12-18T04:45:06.278Z,4.90
2023-12-18T04:47:34.655Z,5.00
2023-12-18T04:50:05.716Z,4.80
2023-12-18T04:52:42.597Z,5.00
2023-12-18T04:55:11.296Z,4.80
2023-12-18T04:57:42.531Z,4.70
2023-12-18T05:00:13.647Z,4.70
2023-12-18T05:02:48.839Z,4.70
2023-12-18T05:05:17.646Z,4.70
2023-12-18T05:07:47.515Z,4.70
2023-12-18T05:10:18.859Z,4.80
2023-12-18T05:12:49.281Z,4.80
2023-12-18T05:15:21.688Z,4.70
2023-12-18T05:17:54.589Z,4.60
2023-12-18T05:20:36.392Z,4.60
2023-12-18T05:23:05.329Z,4.70
2023-12-18T05:25:33.540Z,4.50
2023-12-18T05:28:01.759Z,4.50
2023-12-18T05:30:31.680Z,4.50
2023-12-18T05:33:03.205Z,4.50
2023-12-18T05:35:34.240Z,4.60
2023-12-18T05:38:02.728Z,4.70
2023-12-18T05:40:36.742Z,4.70
2023-12-18T05:43:08.709Z,4.60
2023-12-18T05:45:43.622Z,4.50
2023-12-18T05:48:13.358Z,4.50
2023-12-18T05:50:44.556Z,4.50
2023-12-18T05:53:15.346Z,4.50
2023-12-18T05:55:43.660Z,4.50
2023-12-18T05:58:17.027Z,4.60
2023-12-18T06:00:49.247Z,4.60
2023-12-18T06:03:22.005Z,4.60
2023-12-18T06:05:56.038Z,4.80
2023-12-18T06:08:25.012Z,4.70
2023-12-18T06:11:00.981Z,4.70
2023-12-18T06:13:30.342Z,4.70
2023-12-18T06:16:02.907Z,4.80
2023-12-18T06:18:43.786Z,4.70
2023-12-18T06:21:58.570Z,4.60
2023-12-18T06:24:32.380Z,4.60
2023-12-18T06:27:01.210Z,4.90
2023-12-18T06:29:29.490Z,4.70
2023-12-18T06:32:04.356Z,4.70
2023-12-18T06:34:33.377Z,4.60
2023-12-18T06:37:13.550Z,4.70
2023-12-18T06:39:46.296Z,4.60
2023-12-18T06:42:49.074Z,4.60
2023-12-18T06:45:40.149Z,4.60
2023-12-18T06:51:52.214Z,4.50
2023-12-18T06:54:39.789Z,4.50
2023-12-18T06:57:30.039Z,4.80
2023-12-18T07:00:42.813Z,4.60
2023-12-18T07:03:21.469Z,4.60
2023-12-18T07:06:16.374Z,4.60
2023-12-18T07:09:06.332Z,4.60
2023-12-18T07:11:54.413Z,4.60
2023-12-18T07:14:40.737Z,4.70
2023-12-18T07:23:27.083Z,4.70
2023-12-18T07:26:25.593Z,5.00
2023-12-18T07:32:28.649Z,4.90
2023-12-18T07:35:27.117Z,4.80
2023-12-18T07:38:35.144Z,4.80
2023-12-18T07:41:06.562Z,4.80
2023-12-18T07:43:35.004Z,5.00
2023-12-18T07:46:03.263Z,4.70
2023-12-18T07:48:34.604Z,4.70
2023-12-18T07:51:15.126Z,4.70
2023-12-18T10:08:24.366Z,7.50
2023-12-18T10:11:16.306Z,7.70
2023-12-18T10:23:21.930Z,8.00
2023-12-18T11:12:53.660Z,9.50
2023-12-18T11:15:46.014Z,9.60
2023-12-18T11:21:16.964Z,9.80
2023-12-18T11:24:01.111Z,10.00
2023-12-18T11:26:34.197Z,10.00
2023-12-18T11:29:26.602Z,10.10
2023-12-18T11:32:02.018Z,10.20
2023-12-18T11:34:37.259Z,10.30
2023-12-18T11:37:10.357Z,10.30
2023-12-18T11:39:42.842Z,10.40
2023-12-18T11:42:13.381Z,10.70
2023-12-18T11:44:44.418Z,11.60
2023-12-18T11:47:14.147Z,12.80
2023-12-18T11:49:42.705Z,14.20
2023-12-18T11:52:22.895Z,15.50
2023-12-18T11:54:51.614Z,16.80
2023-12-18T11:57:26.002Z,17.90
2023-12-18T11:59:54.771Z,18.80
2023-12-18T12:02:26.232Z,19.90
2023-12-18T12:04:57.203Z,20.80
2023-12-18T12:07:26.011Z,21.60
2023-12-18T12:10:01.386Z,22.40
2023-12-18T12:12:32.102Z,23.00
2023-12-18T12:15:03.345Z,24.10
2023-12-18T12:17:34.751Z,24.60
2023-12-18T12:20:09.418Z,25.10
2023-12-18T12:22:37.783Z,25.40
2023-12-18T12:25:07.118Z,26.00
2023-12-18T12:27:35.737Z,26.50
2023-12-18T13:02:43.029Z,23.80
2023-12-18T13:06:23.417Z,22.40
2023-12-18T13:12:39.447Z,19.80
2023-12-18T13:15:59.389Z,18.60
2023-12-18T14:01:41.781Z,13.90
2023-12-18T14:04:12.427Z,13.80
2023-12-18T14:06:41.787Z,13.80
2023-12-18T14:09:11.136Z,13.70
2023-12-18T14:11:48.791Z,13.60
2023-12-18T14:14:51.886Z,13.50
2023-12-18T15:20:17.364Z,11.80
2023-12-18T16:10:35.160Z,9.30
2023-12-18T16:13:15.841Z,9.20
2023-12-18T16:15:46.570Z,9.10
2023-12-18T16:18:17.945Z,9.00
2023-12-18T16:21:16.930Z,8.90
2023-12-18T16:23:45.855Z,8.80
2023-12-18T16:26:16.670Z,8.70
2023-12-18T16:29:05.513Z,8.60
2023-12-18T16:32:05.197Z,8.50
2023-12-18T16:34:49.382Z,8.50
2023-12-18T16:40:26.153Z,8.50
2023-12-18T16:43:00.750Z,8.40
2023-12-18T16:45:29.637Z,8.40
2023-12-18T16:48:03.603Z,8.40
2023-12-18T16:50:58.337Z,8.30
2023-12-18T17:38:42.635Z,7.30
2023-12-18T17:41:30.664Z,7.30
2023-12-18T17:44:04.704Z,7.40
2023-12-18T17:46:45.552Z,7.20
2023-12-18T17:49:27.407Z,7.20
2023-12-18T17:55:27.672Z,7.10
2023-12-18T17:58:10.223Z,7.00
2023-12-18T18:00:47.010Z,7.10
2023-12-18T18:03:20.647Z,6.90
2023-12-18T18:05:58.287Z,6.90
2023-12-18T18:08:35.093Z,6.90
2023-12-18T18:11:14.790Z,6.80
2023-12-18T18:14:04.793Z,6.80
2023-12-18T18:16:37.118Z,6.70
2023-12-18T18:19:09.412Z,6.70
2023-12-18T18:21:52.951Z,6.60
2023-12-18T18:24:23.429Z,6.60
2023-12-18T18:27:08.200Z,6.60
2023-12-18T18:29:56.672Z,6.80
2023-12-18T18:32:47.356Z,6.60
2023-12-18T18:35:31.695Z,6.60
2023-12-18T18:38:30.328Z,6.50
2023-12-18T18:41:33.820Z,6.60
2023-12-18T18:44:31.962Z,6.40
2023-12-18T18:47:27.347Z,6.40
2023-12-18T18:50:10.070Z,6.30
2023-12-18T18:52:42.049Z,6.20
2023-12-18T20:55:38.429Z,4.90
